DAUU

Ain el Beida Airport

Ouargla, Algeria
METAR DAUU 160600Z 31009KT 9999 SCT046 SCT100 27/09 Q1012
Observed Flight Rules
Aug-16 @ 06:00 UTC (15 minutes ago) Visual Flight Rules
Wind Visibility Clouds
310° at 9 knots 10,000+ meters
  • Scattered at 4,600' AGL
  • Scattered at 10,000' AGL
Temperatures Readings
Current 27°C / 81°F
Dewpoint 9°C / 48°F
Humidity 32%
Altimeter 29.88" Hg
Pressure 1012 hPa
Elevation 141
METAR DAUU 160600Z 31009KT 9999 SCT046 SCT100 27/09 Q1012
Observed Flight Rules
Aug-16 @ 06:00 UTC
(15 minutes ago)
VFR
Wind Visibility
310° at 9 knots 10,000+ meters
Clouds
  • Scattered at 4,600' AGL
  • Scattered at 10,000' AGL
Temperature Dewpoint
27°C / 81°F 9°C / 48°F
Humidity Altimeter Pressure
32% 29.88" Hg 1012 hPa